• Join FlightAware (Why Join?)
  • Login
  • US Flag 
08:18PM EDT


 

Airport Tracker/Info


-or-


 

Live Flight TrackerFlight Track Log ✈ LOF3416 ✈ 07-Sep-2013 ✈ KSGF - KORD

Flight Track Log - Related Links

Times and Time Zones

All times are in EDT time to prevent confusion due to time zone crossing. See the LOF3416 flight status page for this flight to view local times or setup timezone preferences in your user account.

Time Position Orientation Groundspeed Altitude Reporting Facility
EDT Latitude Longitude Course Direction KTS MPH feet Rate Location/Type
03:11PM 37.3772 -93.1700 35° Northeast 260 299 8,700  Level Kansas City Center
03:12PM 37.4419 -93.1136 35° Northeast 278 320 10,000 1,200 Climbing Kansas City Center
03:13PM 37.5144 -93.0525 34° Northeast 298 343 11,200 1,200 Climbing Kansas City Center
03:14PM 37.5900 -92.9869 35° Northeast 314 361 12,500 1,260 Climbing Kansas City Center
03:15PM 37.6675 -92.9203 34° Northeast 326 375 13,900 1,320 Climbing Kansas City Center
03:16PM 37.7456 -92.8508 35° Northeast 337 388 15,300 1,320 Climbing Kansas City Center
03:17PM 37.8247 -92.7828 34° Northeast 341 392 16,700 1,320 Climbing Kansas City Center
03:18PM 37.9089 -92.7089 35° Northeast 341 392 18,100 1,320 Climbing Kansas City Center
03:19PM 37.9864 -92.6400 35° Northeast 340 391 19,500 1,260 Climbing Kansas City Center
03:20PM 38.0650 -92.5717 34° Northeast 342 394 20,800 1,260 Climbing Kansas City Center
03:21PM 38.1447 -92.5025 34° Northeast 345 397 22,100 1,200 Climbing Kansas City Center
03:22PM 38.2397 -92.4183 35° Northeast 348 400 23,400 1,200 Climbing Kansas City Center
03:23PM 38.3203 -92.3472 35° Northeast 349 402 24,600 780 Climbing Kansas City Center
03:24PM 38.4014 -92.2742 35° Northeast 352 405 25,000 180 Climbing Kansas City Center
03:25PM 38.4900 -92.1958 35° Northeast 368 423 25,000  Level Kansas City Center
03:26PM 38.5825 -92.1122 35° Northeast 389 448 25,000  Level Kansas City Center
03:27PM 38.6775 -92.0269 35° Northeast 404 465 25,000  Level Kansas City Center
03:28PM 38.7744 -91.9394 35° Northeast 415 478 25,000  Level Kansas City Center
03:29PM 38.8725 -91.8503 35° Northeast 424 488 25,000  Level Kansas City Center
03:30PM 38.9717 -91.7606 35° Northeast 430 495 25,000  Level Kansas City Center
03:31PM 39.0889 -91.6539 35° Northeast 434 499 25,000  Level Kansas City Center
03:32PM 39.1892 -91.5603 36° Northeast 438 504 25,000  Level Kansas City Center
03:33PM 39.2886 -91.4697 35° Northeast 439 505 25,000  Level Kansas City Center
03:34PM 39.3869 -91.3792 35° Northeast 436 502 25,000  Level Kansas City Center
03:35PM 39.4869 -91.2872 35° Northeast 437 503 25,000  Level Kansas City Center
03:36PM 39.5864 -91.1931 36° Northeast 440 506 25,000  Level Kansas City Center
03:37PM 39.6856 -91.1025 35° Northeast 438 504 25,000  Level Kansas City Center
03:38PM 39.7906 -90.9989 37° Northeast 440 506 25,000  Level Kansas City Center
03:39PM 39.8997 -90.8892 38° Northeast 440 506 25,000  Level Kansas City Center
03:40PM 39.9967 -90.7908 38° Northeast 441 507 25,000  Level Kansas City Center
03:41PM 40.0939 -90.6922 38° Northeast 442 509 25,000  Level Kansas City Center
03:42PM 40.1919 -90.5928 38° Northeast 444 511 25,000  Level Kansas City Center
03:43PM 40.2892 -90.4928 38° Northeast 444 511 25,000  Level Kansas City Center
03:45PM 40.3881 -90.3919 38° Northeast 447 514 25,000  Level Kansas City Center
03:46PM 40.4864 -90.2911 38° Northeast 447 514 25,000  Level Kansas City Center
03:47PM 40.5828 -90.1908 38° Northeast 448 516 25,000  Level Kansas City Center
03:48PM 40.6964 -90.0736 38° Northeast 439 505 25,000  Level Kansas City Center
03:49PM 40.8136 -89.9539 38° Northeast 430 495 25,000  Level Chicago Center
03:50PM 40.9061 -89.8569 38° Northeast 424 488 25,000  Level Chicago Center
03:51PM 41.0022 -89.7553 39° Northeast 421 484 25,000  Level Chicago Center
03:52PM 41.0942 -89.6589 38° Northeast 419 482 25,000 -60 Level Chicago Center
03:53PM 41.1767 -89.5464 46° Northeast 424 488 24,900 -1,200 Descending Chicago Center
03:54PM 41.2342 -89.4075 61° Northeast 428 493 22,600 -2,400 Descending Chicago Center
03:55PM 41.2911 -89.2644 62° Northeast 435 501 20,100 -2,640 Descending Chicago Center
03:56PM 41.3522 -89.1114 62° Northeast 421 484 17,300 -2,580 Descending Chicago Center
03:57PM 41.4042 -88.9811 62° Northeast 403 464 14,800 -2,460 Descending Chicago Center
03:58PM 41.4561 -88.8542 61° Northeast 394 453 12,300 -1,860 Descending Chicago Center
03:59PM 41.5039 -88.7300 63° Northeast 381 438 11,000 -660 Descending Chicago Center
04:00PM 41.5519 -88.6089 62° Northeast 372 428 11,000  Level Chicago Center
04:01PM 41.6103 -88.4642 62° Northeast 369 425 11,000 -360 Level Chicago Center
04:02PM 41.6717 -88.3569 53° Northeast 362 417 10,300 -780 Descending Chicago Center
04:03PM 41.7272 -88.2636 51° Northeast 327 376 9,400 -1,140 Descending Chicago Center
04:04PM 41.7781 -88.1775 52° Northeast 298 343 8,000 -900 Descending Chicago Center
04:05PM 41.8242 -88.0961 53° Northeast 276 318 7,600 -540 Descending Chicago Center
04:06PM 41.8661 -88.0217 53° Northeast 254 292 7,000 -300 Descending Chicago Center
04:07PM 41.8844 -87.9361 74° East 250 288 7,000  Level Chicago Center
04:08PM 41.8833 -87.8167 91° East 251 289 7,000 -420 Level Chicago TRACON
04:09PM 41.8833 -87.7333 90° East 223 257 6,200 -1,260 Descending Chicago TRACON
04:10PM 41.8833 -87.6667 90° East 219 252 4,800 -1,380 Descending Chicago TRACON
04:11PM 41.9333 -87.6667 360° North 198 228 3,600 -900 Descending Chicago TRACON
04:12PM 41.9667 -87.7167 312° West 183 211 3,000 -840 Descending Chicago TRACON
04:13PM 41.9667 -87.7833 270° West 189 217 2,000 -900 Descending Chicago TRACON
04:14PM 41.9667 -87.8333 270° West 143 165 1,300 -780 Descending Chicago TRACON
04:17PM 41.9667 -87.9000 283° West  Level FlightAware Approximate